createdAt,value
2023-05-17T00:00:54.422Z,2.50
2023-05-17T00:03:21.339Z,2.38
2023-05-17T00:05:49.560Z,1.77
2023-05-17T00:08:16.629Z,1.80
2023-05-17T00:10:43.591Z,2.53
2023-05-17T00:13:10.754Z,3.03
2023-05-17T00:15:37.676Z,2.33
2023-05-17T00:18:04.606Z,1.40
2023-05-17T00:20:31.742Z,2.78
2023-05-17T00:22:58.731Z,2.30
2023-05-17T00:25:25.680Z,2.55
2023-05-17T00:27:52.637Z,2.83
2023-05-17T00:30:19.668Z,1.80
2023-05-17T00:32:47.576Z,2.15
2023-05-17T00:35:14.902Z,2.80
2023-05-17T00:37:47.558Z,2.38
2023-05-17T00:40:16.202Z,1.85
2023-05-17T00:42:43.197Z,2.35
2023-05-17T00:45:10.801Z,2.05
2023-05-17T00:47:38.093Z,1.50
2023-05-17T00:50:06.296Z,1.45
2023-05-17T00:52:38.594Z,1.15
2023-05-17T00:55:06.387Z,2.33
2023-05-17T00:57:33.331Z,1.63
2023-05-17T01:00:01.967Z,1.55
2023-05-17T01:02:29.097Z,1.20
2023-05-17T01:04:56.061Z,2.15
2023-05-17T01:07:23.080Z,2.13
2023-05-17T01:09:50.609Z,1.98
2023-05-17T01:12:43.166Z,3.75
2023-05-17T01:15:16.408Z,1.73
2023-05-17T01:17:49.623Z,1.73
2023-05-17T01:20:22.344Z,1.75
2023-05-17T01:22:58.103Z,2.30
2023-05-17T01:25:25.022Z,1.75
2023-05-17T01:27:54.217Z,1.35
2023-05-17T01:30:22.629Z,1.67
2023-05-17T01:32:50.012Z,2.45
2023-05-17T01:35:17.035Z,1.45
2023-05-17T01:37:43.943Z,2.38
2023-05-17T01:40:11.249Z,3.50
2023-05-17T01:42:41.710Z,2.38
2023-05-17T01:45:32.498Z,2.55
2023-05-17T01:48:18.064Z,2.13
2023-05-17T01:50:48.462Z,2.42
2023-05-17T01:53:46.317Z,1.27
2023-05-17T01:56:27.147Z,2.80
2023-05-17T01:58:56.660Z,2.33
2023-05-17T02:01:28.618Z,1.88
2023-05-17T02:03:55.814Z,1.80
2023-05-17T02:06:23.117Z,2.28
2023-05-17T02:08:49.961Z,1.67
2023-05-17T02:11:17.084Z,2.38
2023-05-17T02:13:44.018Z,2.35
2023-05-17T02:16:11.099Z,1.80
2023-05-17T02:18:38.236Z,1.75
2023-05-17T02:21:06.664Z,3.00
2023-05-17T02:23:33.540Z,2.15
2023-05-17T02:26:00.634Z,2.53
2023-05-17T02:28:27.857Z,2.15
2023-05-17T02:30:56.460Z,2.75
2023-05-17T02:33:23.742Z,2.08
2023-05-17T02:35:51.650Z,2.25
2023-05-17T02:38:19.745Z,2.05
2023-05-17T02:40:46.595Z,2.30
2023-05-17T02:43:13.569Z,2.08
2023-05-17T02:45:40.549Z,2.42
2023-05-17T02:48:07.516Z,1.83
2023-05-17T02:50:34.601Z,2.50
2023-05-17T02:53:01.545Z,2.22
2023-05-17T02:55:29.991Z,2.10
2023-05-17T02:57:57.321Z,2.20
2023-05-17T03:00:24.964Z,3.47
2023-05-17T03:02:53.388Z,4.10
2023-05-17T03:05:20.339Z,3.28
2023-05-17T03:07:50.680Z,2.70
2023-05-17T03:10:18.251Z,3.08
2023-05-17T03:12:46.713Z,2.97
2023-05-17T03:15:17.503Z,2.03
2023-05-17T03:17:45.123Z,2.17
2023-05-17T03:20:13.095Z,3.03
2023-05-17T03:22:40.081Z,2.67
2023-05-17T03:25:08.616Z,2.20
2023-05-17T03:27:36.962Z,2.08
2023-05-17T03:30:05.196Z,2.10
2023-05-17T03:32:35.261Z,2.40
2023-05-17T03:35:02.420Z,2.20
2023-05-17T03:37:30.531Z,1.92
2023-05-17T03:39:57.473Z,3.38
2023-05-17T03:42:24.890Z,2.20
2023-05-17T03:44:52.577Z,3.00
2023-05-17T03:47:23.743Z,1.75
2023-05-17T03:49:51.456Z,2.80
2023-05-17T03:52:18.700Z,2.20
2023-05-17T03:54:48.067Z,1.92
2023-05-17T03:57:16.298Z,2.08
2023-05-17T03:59:43.289Z,1.95
2023-05-17T04:02:10.608Z,2.03
2023-05-17T04:04:38.250Z,2.20
2023-05-17T04:07:05.365Z,2.95
2023-05-17T04:09:35.031Z,3.40
2023-05-17T04:12:02.036Z,2.50
2023-05-17T04:14:31.110Z,2.75
2023-05-17T04:16:59.465Z,2.53
2023-05-17T04:19:26.566Z,2.67
2023-05-17T04:21:54.822Z,3.70
2023-05-17T04:24:23.945Z,2.83
2023-05-17T04:26:51.746Z,3.25
2023-05-17T04:29:23.001Z,3.00
2023-05-17T04:31:50.727Z,2.42
2023-05-17T04:34:18.213Z,2.88
2023-05-17T04:36:45.561Z,2.33
2023-05-17T04:39:12.591Z,2.97
2023-05-17T04:41:40.031Z,4.18
2023-05-17T04:44:10.671Z,2.17
2023-05-17T04:46:37.712Z,2.17
2023-05-17T04:49:04.808Z,2.58
2023-05-17T04:51:31.941Z,2.72
2023-05-17T04:54:01.053Z,2.45
2023-05-17T04:56:29.855Z,2.75
2023-05-17T04:58:57.404Z,2.28
2023-05-17T05:01:24.361Z,2.97
2023-05-17T05:03:52.081Z,1.95
2023-05-17T05:06:19.034Z,1.77
2023-05-17T05:08:46.810Z,1.90
2023-05-17T05:11:13.715Z,3.17
2023-05-17T05:13:41.775Z,3.28
2023-05-17T05:16:08.966Z,2.78
2023-05-17T05:18:37.189Z,2.15
2023-05-17T05:21:04.257Z,2.85
2023-05-17T05:23:31.688Z,2.28
2023-05-17T05:25:59.096Z,3.25
2023-05-17T05:28:26.042Z,1.95
2023-05-17T05:31:00.896Z,3.17
2023-05-17T05:33:34.223Z,2.90
2023-05-17T05:36:02.077Z,2.33
2023-05-17T05:38:28.970Z,2.83
2023-05-17T05:40:55.908Z,2.60
2023-05-17T05:43:22.898Z,2.10
2023-05-17T05:45:50.098Z,1.52
2023-05-17T05:48:16.992Z,2.42
2023-05-17T05:50:44.878Z,1.42
2023-05-17T05:53:18.657Z,1.75
2023-05-17T05:55:52.298Z,1.63
2023-05-17T05:58:20.153Z,2.42
2023-05-17T06:00:47.883Z,1.95
2023-05-17T06:03:16.475Z,1.85
2023-05-17T06:05:43.729Z,2.35
2023-05-17T06:08:10.770Z,2.30
2023-05-17T06:10:37.625Z,2.80
2023-05-17T06:13:05.505Z,2.90
2023-05-17T06:15:34.592Z,3.08
2023-05-17T06:18:01.814Z,2.20
2023-05-17T06:20:29.027Z,2.30
2023-05-17T06:22:56.113Z,1.98
2023-05-17T06:25:28.805Z,2.13
2023-05-17T06:27:55.636Z,2.90
2023-05-17T06:30:23.570Z,2.20
2023-05-17T06:32:50.508Z,2.35
2023-05-17T06:35:17.537Z,2.42
2023-05-17T06:37:47.663Z,1.80
2023-05-17T06:40:17.114Z,1.70
2023-05-17T06:42:44.643Z,1.75
2023-05-17T06:45:12.692Z,2.10
2023-05-17T06:47:39.833Z,1.92
2023-05-17T06:50:08.943Z,3.00
2023-05-17T06:52:36.364Z,2.35
2023-05-17T06:55:03.258Z,2.17
2023-05-17T06:57:30.204Z,3.33
2023-05-17T06:59:57.262Z,2.67
2023-05-17T07:02:24.264Z,3.38
2023-05-17T07:04:51.333Z,2.30
2023-05-17T07:07:19.757Z,3.38
2023-05-17T07:09:47.712Z,1.80
2023-05-17T07:12:14.567Z,1.90
2023-05-17T07:14:41.551Z,1.35
2023-05-17T07:17:09.127Z,1.73
2023-05-17T07:19:36.149Z,2.30
2023-05-17T07:22:05.871Z,1.80
2023-05-17T07:24:32.746Z,1.10
2023-05-17T07:26:59.578Z,2.38
2023-05-17T07:29:26.505Z,1.45
2023-05-17T07:31:53.399Z,1.77
2023-05-17T07:34:20.460Z,1.90
2023-05-17T07:36:47.424Z,1.80
2023-05-17T07:39:14.317Z,1.65
2023-05-17T07:41:41.383Z,1.45
2023-05-17T07:44:08.265Z,1.05
2023-05-17T07:46:36.926Z,1.70
2023-05-17T07:49:03.938Z,1.52
2023-05-17T07:51:31.626Z,2.13
2023-05-17T07:53:58.906Z,1.70
2023-05-17T07:56:25.935Z,1.65
2023-05-17T07:58:52.758Z,1.60
2023-05-17T08:01:21.017Z,1.10
2023-05-17T08:03:48.289Z,0.88
2023-05-17T08:06:18.128Z,1.10
2023-05-17T08:08:45.278Z,1.65
2023-05-17T08:11:13.510Z,1.42
2023-05-17T08:13:40.536Z,1.95
2023-05-17T08:16:14.349Z,1.50
2023-05-17T08:18:43.197Z,1.23
2023-05-17T08:21:11.455Z,1.52
2023-05-17T08:23:38.836Z,2.35
2023-05-17T08:26:05.831Z,1.23
2023-05-17T08:28:32.936Z,1.50
2023-05-17T08:31:00.029Z,1.58
2023-05-17T08:33:27.706Z,1.50
2023-05-17T08:35:55.440Z,1.88
2023-05-17T08:38:22.638Z,1.30
2023-05-17T08:40:56.257Z,1.20
2023-05-17T08:45:57.521Z,1.42
2023-05-17T08:48:26.441Z,1.50
2023-05-17T08:50:55.725Z,1.02
2023-05-17T08:53:23.550Z,1.02
2023-05-17T08:55:51.541Z,1.35
2023-05-17T08:58:21.344Z,1.73
2023-05-17T09:00:50.271Z,2.33
2023-05-17T09:03:19.267Z,1.33
2023-05-17T09:05:53.732Z,1.15
2023-05-17T09:08:22.584Z,1.65
2023-05-17T09:10:49.940Z,1.65
2023-05-17T09:13:20.089Z,1.40
2023-05-17T09:15:49.902Z,1.17
2023-05-17T09:18:19.423Z,1.67
2023-05-17T09:20:55.581Z,2.20
2023-05-17T09:23:23.299Z,1.48
2023-05-17T09:25:50.252Z,1.50
2023-05-17T09:28:20.553Z,1.98
2023-05-17T09:30:49.321Z,1.95
2023-05-17T09:33:18.626Z,1.35
2023-05-17T09:35:46.109Z,1.10
2023-05-17T09:38:14.727Z,1.63
2023-05-17T09:40:43.626Z,1.90
2023-05-17T09:43:11.963Z,1.58
2023-05-17T09:45:39.444Z,1.60
2023-05-17T09:48:16.646Z,1.13
2023-05-17T09:50:51.435Z,0.90
2023-05-17T09:53:42.232Z,1.70
2023-05-17T09:56:10.789Z,0.90
2023-05-17T09:58:38.016Z,1.08
2023-05-17T10:01:07.525Z,0.98
2023-05-17T10:03:36.810Z,1.60
2023-05-17T10:06:09.845Z,1.23
2023-05-17T10:08:43.304Z,1.13
2023-05-17T10:11:11.056Z,0.98
2023-05-17T10:13:47.419Z,1.17
2023-05-17T10:16:15.832Z,1.00
2023-05-17T10:18:43.893Z,1.08
2023-05-17T10:21:11.460Z,1.10
2023-05-17T10:23:40.641Z,1.95
2023-05-17T10:26:08.656Z,0.88
2023-05-17T10:28:36.888Z,1.20
2023-05-17T10:31:07.316Z,1.02
2023-05-17T10:33:35.921Z,1.70
2023-05-17T10:36:06.558Z,1.05
2023-05-17T10:38:41.607Z,0.88
2023-05-17T10:41:13.156Z,1.17
2023-05-17T10:43:42.011Z,1.60
2023-05-17T10:46:22.368Z,0.82
2023-05-17T10:48:52.124Z,0.80
2023-05-17T10:51:24.697Z,0.80
2023-05-17T10:54:18.220Z,1.05
2023-05-17T10:56:49.320Z,0.98
2023-05-17T10:59:26.813Z,1.02
2023-05-17T11:02:04.086Z,0.70
2023-05-17T11:04:37.903Z,1.55
2023-05-17T11:07:21.938Z,0.90
2023-05-17T11:10:08.542Z,0.98
2023-05-17T11:12:44.557Z,1.13
2023-05-17T11:15:13.652Z,0.90
2023-05-17T11:17:44.108Z,0.90
2023-05-17T11:20:32.961Z,1.65
2023-05-17T11:23:05.639Z,0.73
2023-05-17T11:25:36.807Z,0.85
2023-05-17T11:28:18.036Z,1.17
2023-05-17T11:30:51.256Z,1.50
2023-05-17T11:33:29.652Z,0.75
2023-05-17T11:36:06.145Z,0.98
2023-05-17T11:38:34.277Z,0.93
2023-05-17T11:41:26.809Z,1.10
2023-05-17T11:43:55.285Z,0.90
2023-05-17T11:46:24.637Z,0.57
2023-05-17T11:48:53.613Z,1.08
2023-05-17T11:51:24.374Z,0.70
2023-05-17T11:53:55.436Z,1.35
2023-05-17T11:56:32.158Z,1.52
2023-05-17T11:59:10.079Z,1.15
2023-05-17T12:01:44.323Z,0.80
2023-05-17T12:04:11.501Z,0.52
2023-05-17T12:06:40.256Z,0.45
2023-05-17T12:09:10.870Z,0.90
2023-05-17T12:11:39.537Z,1.23
2023-05-17T12:14:07.259Z,0.93
2023-05-17T12:16:40.495Z,0.93
2023-05-17T12:19:17.805Z,0.50
2023-05-17T12:21:44.763Z,1.23
2023-05-17T12:24:11.647Z,0.75
2023-05-17T12:26:46.739Z,1.08
2023-05-17T12:29:15.776Z,0.80
2023-05-17T12:31:52.686Z,1.33
2023-05-17T12:34:20.562Z,1.10
2023-05-17T12:36:48.366Z,0.47
2023-05-17T12:39:15.513Z,0.50
2023-05-17T12:41:43.635Z,0.70
2023-05-17T12:44:15.532Z,0.40
2023-05-17T12:46:43.999Z,0.50
2023-05-17T12:49:14.592Z,0.88
2023-05-17T12:51:46.109Z,0.75
2023-05-17T12:54:27.017Z,1.52
2023-05-17T12:56:54.935Z,1.00
2023-05-17T12:59:25.176Z,0.57
2023-05-17T13:01:55.579Z,0.95
2023-05-17T13:04:31.661Z,0.68
2023-05-17T13:07:00.926Z,1.75
2023-05-17T13:09:32.528Z,1.30
2023-05-17T13:12:06.750Z,1.75
2023-05-17T13:14:46.664Z,0.60
2023-05-17T13:17:36.023Z,0.80
2023-05-17T13:20:04.284Z,0.80
2023-05-17T13:22:32.386Z,0.75
2023-05-17T13:24:59.254Z,0.80
2023-05-17T13:27:26.104Z,0.88
2023-05-17T13:29:53.558Z,0.63
2023-05-17T13:32:21.422Z,0.40
2023-05-17T13:34:48.266Z,0.93
2023-05-17T13:37:15.219Z,0.60
2023-05-17T13:39:42.279Z,1.05
2023-05-17T13:42:09.840Z,1.17
2023-05-17T13:44:38.221Z,0.95
2023-05-17T13:47:05.714Z,0.93
2023-05-17T13:49:32.645Z,0.93
2023-05-17T13:52:00.572Z,0.88
2023-05-17T13:54:27.697Z,0.98
2023-05-17T13:56:55.650Z,0.90
2023-05-17T13:59:22.693Z,1.45
2023-05-17T14:01:49.712Z,1.00
2023-05-17T14:04:16.990Z,0.93
2023-05-17T14:06:44.617Z,0.80
2023-05-17T14:09:13.342Z,0.88
2023-05-17T14:11:40.351Z,0.73
2023-05-17T14:14:07.284Z,0.90
2023-05-17T14:16:34.220Z,0.80
2023-05-17T14:19:04.311Z,0.70
2023-05-17T14:21:31.762Z,1.00
2023-05-17T14:23:58.690Z,0.85
2023-05-17T14:26:26.159Z,0.80
2023-05-17T14:28:53.544Z,1.13
2023-05-17T14:31:20.471Z,0.60
2023-05-17T14:33:47.353Z,0.75
2023-05-17T14:36:14.448Z,0.68
2023-05-17T14:38:41.312Z,0.85
2023-05-17T14:41:08.236Z,0.73
2023-05-17T14:43:35.193Z,0.68
2023-05-17T14:46:02.111Z,1.00
2023-05-17T14:48:29.108Z,0.98
2023-05-17T14:50:56.007Z,1.95
2023-05-17T14:53:23.500Z,1.25
2023-05-17T14:55:51.194Z,1.02
2023-05-17T14:58:18.220Z,1.10
2023-05-17T15:00:48.561Z,0.98
2023-05-17T15:03:21.934Z,0.68
2023-05-17T15:05:58.435Z,0.93
2023-05-17T15:08:27.187Z,0.63
2023-05-17T15:10:54.569Z,0.90
2023-05-17T15:13:22.782Z,0.70
2023-05-17T15:15:49.733Z,0.77
2023-05-17T15:18:16.671Z,1.20
2023-05-17T15:20:43.533Z,0.80
2023-05-17T15:23:10.623Z,0.65
2023-05-17T15:25:37.628Z,0.73
2023-05-17T15:28:04.670Z,0.85
2023-05-17T15:30:32.420Z,0.90
2023-05-17T15:33:00.155Z,1.10
2023-05-17T15:35:27.593Z,0.75
2023-05-17T15:37:57.310Z,0.75
2023-05-17T15:40:24.924Z,1.02
2023-05-17T15:42:52.509Z,1.02
2023-05-17T15:45:22.552Z,0.85
2023-05-17T15:47:49.451Z,0.90
2023-05-17T15:50:17.695Z,0.98
2023-05-17T15:52:45.851Z,0.88
2023-05-17T15:55:13.184Z,1.58
2023-05-17T15:57:40.552Z,1.08
2023-05-17T16:00:08.110Z,0.70
2023-05-17T16:02:35.081Z,1.10
2023-05-17T16:05:03.869Z,0.75
2023-05-17T16:07:31.236Z,1.45
2023-05-17T16:09:58.359Z,0.88
2023-05-17T16:12:25.233Z,0.88
2023-05-17T16:14:52.090Z,0.60
2023-05-17T16:17:19.106Z,1.13
2023-05-17T16:19:46.110Z,0.70
2023-05-17T16:22:13.946Z,0.80
2023-05-17T16:24:41.799Z,1.25
2023-05-17T16:27:08.726Z,1.02
2023-05-17T16:29:39.826Z,1.40
2023-05-17T16:32:08.006Z,1.20
2023-05-17T16:34:35.335Z,1.35
2023-05-17T16:37:04.653Z,0.95
2023-05-17T16:39:32.383Z,1.52
2023-05-17T16:41:59.412Z,1.05
2023-05-17T16:44:26.370Z,1.02
2023-05-17T16:46:53.311Z,2.03
2023-05-17T16:49:20.393Z,1.05
2023-05-17T16:51:47.355Z,1.27
2023-05-17T16:54:14.183Z,1.15
2023-05-17T16:56:41.031Z,1.40
2023-05-17T16:59:08.080Z,1.00
2023-05-17T17:01:34.978Z,1.38
2023-05-17T17:04:03.322Z,1.00
2023-05-17T17:06:31.336Z,1.00
2023-05-17T17:08:58.244Z,1.10
2023-05-17T17:11:25.098Z,1.17
2023-05-17T17:13:52.469Z,1.10
2023-05-17T17:16:20.439Z,1.08
2023-05-17T17:18:49.487Z,0.98
2023-05-17T17:21:16.718Z,0.95
2023-05-17T17:23:44.410Z,1.05
2023-05-17T17:26:11.910Z,0.77
2023-05-17T17:28:38.854Z,1.30
2023-05-17T17:31:06.624Z,1.25
2023-05-17T17:33:34.159Z,0.40
2023-05-17T17:36:02.528Z,1.67
2023-05-17T17:38:29.435Z,1.17
2023-05-17T17:40:56.338Z,1.08
2023-05-17T17:43:23.219Z,1.75
2023-05-17T17:45:50.140Z,1.02
2023-05-17T17:48:17.071Z,1.08
2023-05-17T17:50:43.921Z,1.20
2023-05-17T17:53:10.916Z,0.90
2023-05-17T17:55:37.796Z,1.02
2023-05-17T17:58:04.905Z,0.90
2023-05-17T18:00:32.024Z,0.95
2023-05-17T18:02:59.080Z,1.08
2023-05-17T18:05:26.202Z,0.75
2023-05-17T18:07:53.204Z,0.70
2023-05-17T18:10:20.310Z,1.00
2023-05-17T18:12:47.903Z,0.73
2023-05-17T18:15:16.320Z,1.73
2023-05-17T18:17:43.403Z,0.93
2023-05-17T18:20:10.680Z,0.70
2023-05-17T18:22:37.498Z,0.88
2023-05-17T18:25:04.647Z,1.30
2023-05-17T18:27:31.546Z,0.95
2023-05-17T18:29:59.422Z,1.10
2023-05-17T18:32:26.432Z,1.00
2023-05-17T18:34:54.918Z,0.80
2023-05-17T18:37:21.933Z,0.75
2023-05-17T18:39:48.879Z,1.60
2023-05-17T18:42:15.709Z,1.77
2023-05-17T18:44:42.717Z,1.83
2023-05-17T18:47:10.480Z,1.67
2023-05-17T18:49:41.980Z,1.38
2023-05-17T18:52:08.872Z,1.15
2023-05-17T18:54:35.784Z,1.40
2023-05-17T18:57:02.644Z,1.10
2023-05-17T18:59:29.478Z,1.83
2023-05-17T19:01:56.650Z,1.48
2023-05-17T19:04:23.649Z,1.30
2023-05-17T19:06:50.667Z,1.45
2023-05-17T19:09:17.536Z,1.35
2023-05-17T19:11:45.431Z,1.10
2023-05-17T19:14:14.630Z,0.73
2023-05-17T19:16:42.048Z,1.33
2023-05-17T19:19:09.959Z,0.90
2023-05-17T19:21:37.051Z,1.38
2023-05-17T19:24:05.608Z,1.48
2023-05-17T19:26:32.560Z,1.10
2023-05-17T19:28:59.468Z,1.33
2023-05-17T19:31:27.921Z,1.30
2023-05-17T19:33:54.828Z,2.08
2023-05-17T19:36:21.803Z,1.25
2023-05-17T19:38:50.538Z,1.20
2023-05-17T19:41:20.192Z,1.65
2023-05-17T19:43:47.358Z,1.85
2023-05-17T19:46:14.509Z,1.70
2023-05-17T19:48:44.174Z,1.90
2023-05-17T19:51:11.335Z,1.83
2023-05-17T19:53:52.619Z,2.15
2023-05-17T19:56:22.576Z,1.85
2023-05-17T19:58:50.153Z,2.35
2023-05-17T20:01:17.212Z,1.55
2023-05-17T20:03:44.525Z,1.48
2023-05-17T20:06:14.287Z,1.52
2023-05-17T20:08:42.332Z,1.85
2023-05-17T20:11:10.031Z,1.70
2023-05-17T20:13:40.144Z,1.88
2023-05-17T20:16:14.698Z,2.38
2023-05-17T20:18:43.351Z,1.83
2023-05-17T20:21:12.664Z,1.77
2023-05-17T20:23:40.463Z,1.83
2023-05-17T20:26:07.377Z,1.80
2023-05-17T20:28:34.311Z,1.38
2023-05-17T20:31:01.452Z,1.40
2023-05-17T20:33:31.877Z,1.77
2023-05-17T20:35:59.258Z,2.03
2023-05-17T20:38:26.397Z,2.17
2023-05-17T20:40:53.374Z,1.42
2023-05-17T20:43:20.527Z,1.67
2023-05-17T20:45:49.724Z,1.65
2023-05-17T20:48:16.755Z,1.55
2023-05-17T20:50:43.581Z,1.63
2023-05-17T20:53:10.673Z,1.35
2023-05-17T20:55:37.673Z,1.40
2023-05-17T20:58:04.597Z,1.88
2023-05-17T21:00:32.138Z,2.08
2023-05-17T21:02:59.227Z,2.35
2023-05-17T21:05:28.472Z,1.75
2023-05-17T21:07:56.559Z,1.52
2023-05-17T21:10:23.450Z,1.83
2023-05-17T21:12:50.373Z,1.40
2023-05-17T21:15:17.557Z,2.00
2023-05-17T21:17:44.602Z,1.83
2023-05-17T21:20:11.981Z,2.15
2023-05-17T21:22:38.793Z,1.70
2023-05-17T21:25:06.167Z,2.95
2023-05-17T21:27:34.134Z,1.77
2023-05-17T21:30:01.524Z,1.65
2023-05-17T21:32:28.531Z,2.20
2023-05-17T21:34:55.578Z,2.15
2023-05-17T21:37:22.429Z,2.10
2023-05-17T21:39:49.376Z,1.92
2023-05-17T21:42:16.379Z,2.88
2023-05-17T21:44:43.282Z,1.83
2023-05-17T21:47:10.413Z,1.30
2023-05-17T21:49:37.324Z,2.83
2023-05-17T21:52:04.532Z,2.40
2023-05-17T21:54:31.493Z,2.03
2023-05-17T21:56:58.426Z,2.92
2023-05-17T21:59:25.391Z,2.65
2023-05-17T22:01:55.043Z,2.35
2023-05-17T22:04:24.111Z,2.30
2023-05-17T22:06:51.491Z,2.40
2023-05-17T22:09:19.428Z,1.77
2023-05-17T22:11:46.519Z,1.90
2023-05-17T22:14:13.482Z,1.50
2023-05-17T22:16:41.480Z,1.88
2023-05-17T22:19:08.383Z,1.30
2023-05-17T22:21:35.190Z,1.67
2023-05-17T22:24:02.067Z,1.90
2023-05-17T22:26:28.912Z,2.13
2023-05-17T22:28:56.035Z,2.03
2023-05-17T22:31:22.978Z,1.30
2023-05-17T22:33:52.033Z,1.52
2023-05-17T22:36:19.499Z,1.60
2023-05-17T22:38:46.657Z,1.95
2023-05-17T22:41:13.736Z,1.60
2023-05-17T22:43:40.611Z,1.90
2023-05-17T22:46:07.524Z,2.10
2023-05-17T22:48:38.208Z,2.10
2023-05-17T22:51:05.289Z,1.50
2023-05-17T22:53:32.153Z,1.90
2023-05-17T22:55:59.230Z,1.92
2023-05-17T22:58:26.162Z,1.30
2023-05-17T23:00:53.141Z,2.35
2023-05-17T23:03:20.538Z,1.50
2023-05-17T23:05:47.672Z,2.10
2023-05-17T23:08:17.389Z,1.42
2023-05-17T23:10:44.747Z,1.63
2023-05-17T23:13:12.647Z,1.50
2023-05-17T23:15:40.741Z,1.60
2023-05-17T23:18:08.088Z,1.13
2023-05-17T23:20:35.895Z,1.35
2023-05-17T23:23:02.845Z,3.03
2023-05-17T23:25:31.570Z,2.67
2023-05-17T23:27:58.645Z,1.67
2023-05-17T23:30:26.276Z,1.85
2023-05-17T23:32:54.965Z,1.13
2023-05-17T23:35:23.607Z,1.40
2023-05-17T23:37:50.550Z,1.77
2023-05-17T23:40:17.463Z,1.75
2023-05-17T23:42:44.371Z,1.73
2023-05-17T23:45:11.253Z,1.65
2023-05-17T23:47:40.633Z,1.20
2023-05-17T23:50:10.852Z,1.80
2023-05-17T23:52:38.982Z,1.88
2023-05-17T23:55:07.344Z,1.40
2023-05-17T23:57:35.167Z,1.45
